sensor_id;sensor_type;location;lat;lon;timestamp;pressure;altitude;pressure_sealevel;temperature;humidity
18784;BME280;9520;50.954;6.968;2022-12-20T00:00:08;101064.91;;;18.17;44.14
18784;BME280;9520;50.954;6.968;2022-12-20T00:00:30;101073.25;;;18.09;44.33
18784;BME280;9520;50.954;6.968;2022-12-20T00:00:52;101070.34;;;18.15;44.13
18784;BME280;9520;50.954;6.968;2022-12-20T00:01:16;101068.59;;;18.14;44.08
18784;BME280;9520;50.954;6.968;2022-12-20T00:01:39;101075.53;;;18.18;44.19
18784;BME280;9520;50.954;6.968;2022-12-20T00:02:01;101071.84;;;18.21;44.06
18784;BME280;9520;50.954;6.968;2022-12-20T00:02:22;101071.06;;;18.19;44.05
18784;BME280;9520;50.954;6.968;2022-12-20T00:02:44;101071.13;;;18.17;44.34
18784;BME280;9520;50.954;6.968;2022-12-20T00:03:07;101070.06;;;18.21;44.26
18784;BME280;9520;50.954;6.968;2022-12-20T00:03:29;101067.28;;;18.24;44.05
18784;BME280;9520;50.954;6.968;2022-12-20T00:03:52;101068.03;;;18.28;44.00
18784;BME280;9520;50.954;6.968;2022-12-20T00:04:14;101081.38;;;18.28;43.96
18784;BME280;9520;50.954;6.968;2022-12-20T00:04:37;101064.44;;;18.29;43.80
18784;BME280;9520;50.954;6.968;2022-12-20T00:04:59;101069.88;;;18.26;43.89
18784;BME280;9520;50.954;6.968;2022-12-20T00:05:20;101066.38;;;18.25;44.01
18784;BME280;9520;50.954;6.968;2022-12-20T00:05:42;101068.75;;;18.31;43.94
18784;BME280;9520;50.954;6.968;2022-12-20T00:06:04;101073.22;;;18.31;44.15
18784;BME280;9520;50.954;6.968;2022-12-20T00:06:27;101070.25;;;18.17;44.13
18784;BME280;9520;50.954;6.968;2022-12-20T00:06:49;101059.19;;;18.04;44.43
18784;BME280;9520;50.954;6.968;2022-12-20T00:07:11;101071.81;;;18.00;44.50
18784;BME280;9520;50.954;6.968;2022-12-20T00:07:32;101072.59;;;18.02;44.53
18784;BME280;9520;50.954;6.968;2022-12-20T00:07:55;101078.81;;;18.03;44.42
18784;BME280;9520;50.954;6.968;2022-12-20T00:08:17;101066.22;;;18.06;44.61
18784;BME280;9520;50.954;6.968;2022-12-20T00:08:39;101073.00;;;18.15;44.21
18784;BME280;9520;50.954;6.968;2022-12-20T00:09:04;101069.19;;;18.21;44.04
18784;BME280;9520;50.954;6.968;2022-12-20T00:09:27;101061.75;;;18.29;44.21
18784;BME280;9520;50.954;6.968;2022-12-20T00:09:50;101059.09;;;18.29;43.96
18784;BME280;9520;50.954;6.968;2022-12-20T00:10:12;101055.72;;;18.24;43.90
18784;BME280;9520;50.954;6.968;2022-12-20T00:10:34;101063.50;;;18.30;43.86
18784;BME280;9520;50.954;6.968;2022-12-20T00:10:58;101062.34;;;18.35;44.01
18784;BME280;9520;50.954;6.968;2022-12-20T00:11:20;101059.53;;;18.40;43.85
18784;BME280;9520;50.954;6.968;2022-12-20T00:11:42;101069.16;;;18.44;43.67
18784;BME280;9520;50.954;6.968;2022-12-20T00:12:04;101058.38;;;18.45;43.78
18784;BME280;9520;50.954;6.968;2022-12-20T00:12:27;101066.28;;;18.48;43.48
18784;BME280;9520;50.954;6.968;2022-12-20T00:12:48;101067.25;;;18.46;43.74
18784;BME280;9520;50.954;6.968;2022-12-20T00:13:11;101068.03;;;18.49;43.51
18784;BME280;9520;50.954;6.968;2022-12-20T00:13:33;101064.47;;;18.49;43.47
18784;BME280;9520;50.954;6.968;2022-12-20T00:13:55;101060.19;;;18.45;43.38
18784;BME280;9520;50.954;6.968;2022-12-20T00:14:18;101055.84;;;18.42;43.56
18784;BME280;9520;50.954;6.968;2022-12-20T00:14:40;101063.72;;;18.45;43.32
18784;BME280;9520;50.954;6.968;2022-12-20T00:15:02;101055.69;;;18.45;43.32
18784;BME280;9520;50.954;6.968;2022-12-20T00:15:23;101065.66;;;18.42;43.45
18784;BME280;9520;50.954;6.968;2022-12-20T00:15:46;101054.09;;;18.41;43.45
18784;BME280;9520;50.954;6.968;2022-12-20T00:16:10;101054.00;;;18.44;43.43
18784;BME280;9520;50.954;6.968;2022-12-20T00:16:33;101059.19;;;18.47;43.44
18784;BME280;9520;50.954;6.968;2022-12-20T00:16:55;101047.69;;;18.45;43.42
18784;BME280;9520;50.954;6.968;2022-12-20T00:17:18;101055.59;;;18.48;43.50
18784;BME280;9520;50.954;6.968;2022-12-20T00:17:40;101055.53;;;18.50;43.31
18784;BME280;9520;50.954;6.968;2022-12-20T00:18:02;101051.03;;;18.50;43.24
18784;BME280;9520;50.954;6.968;2022-12-20T00:18:24;101048.38;;;18.50;43.26
18784;BME280;9520;50.954;6.968;2022-12-20T00:18:49;101054.50;;;18.54;43.30
18784;BME280;9520;50.954;6.968;2022-12-20T00:19:12;101048.31;;;18.52;43.33
18784;BME280;9520;50.954;6.968;2022-12-20T00:19:34;101054.50;;;18.54;43.29
18784;BME280;9520;50.954;6.968;2022-12-20T00:19:55;101048.38;;;18.50;43.28
18784;BME280;9520;50.954;6.968;2022-12-20T00:20:17;101049.25;;;18.51;43.36
18784;BME280;9520;50.954;6.968;2022-12-20T00:20:40;101050.09;;;18.51;43.43
18784;BME280;9520;50.954;6.968;2022-12-20T00:21:03;101049.31;;;18.49;43.40
18784;BME280;9520;50.954;6.968;2022-12-20T00:21:27;101050.25;;;18.48;43.57
18784;BME280;9520;50.954;6.968;2022-12-20T00:21:49;101046.72;;;18.48;43.36
18784;BME280;9520;50.954;6.968;2022-12-20T00:22:11;101045.84;;;18.47;43.34
18784;BME280;9520;50.954;6.968;2022-12-20T00:22:33;101039.69;;;18.45;43.39
18784;BME280;9520;50.954;6.968;2022-12-20T00:22:55;101050.25;;;18.48;43.30
18784;BME280;9520;50.954;6.968;2022-12-20T00:23:17;101051.13;;;18.49;43.46
18784;BME280;9520;50.954;6.968;2022-12-20T00:23:39;101044.09;;;18.46;43.55
18784;BME280;9520;50.954;6.968;2022-12-20T00:24:02;101044.97;;;18.47;43.54
18784;BME280;9520;50.954;6.968;2022-12-20T00:24:24;101039.09;;;18.39;43.46
18784;BME280;9520;50.954;6.968;2022-12-20T00:24:47;101038.00;;;18.43;43.56
18784;BME280;9520;50.954;6.968;2022-12-20T00:25:10;101037.09;;;18.44;43.36
18784;BME280;9520;50.954;6.968;2022-12-20T00:25:32;101041.56;;;18.43;43.42
18784;BME280;9520;50.954;6.968;2022-12-20T00:25:59;101028.19;;;18.43;43.48
18784;BME280;9520;50.954;6.968;2022-12-20T00:26:23;101041.56;;;18.43;43.64
18784;BME280;9520;50.954;6.968;2022-12-20T00:26:46;101037.09;;;18.44;43.48
18784;BME280;9520;50.954;6.968;2022-12-20T00:27:08;101035.41;;;18.41;43.49
18784;BME280;9520;50.954;6.968;2022-12-20T00:27:30;101038.00;;;18.43;43.54
18784;BME280;9520;50.954;6.968;2022-12-20T00:27:51;101037.19;;;18.41;43.50
18784;BME280;9520;50.954;6.968;2022-12-20T00:28:13;101031.84;;;18.41;43.88
18784;BME280;9520;50.954;6.968;2022-12-20T00:28:36;101030.16;;;18.40;43.86
18784;BME280;9520;50.954;6.968;2022-12-20T00:28:58;101029.38;;;18.36;43.88
18784;BME280;9520;50.954;6.968;2022-12-20T00:29:21;101026.78;;;18.35;43.88
18784;BME280;9520;50.954;6.968;2022-12-20T00:29:42;101024.19;;;18.33;44.03
18784;BME280;9520;50.954;6.968;2022-12-20T00:30:07;101032.25;;;18.32;44.01
18784;BME280;9520;50.954;6.968;2022-12-20T00:30:29;101025.28;;;18.28;44.18
18784;BME280;9520;50.954;6.968;2022-12-20T00:30:52;101019.94;;;18.28;44.21
18784;BME280;9520;50.954;6.968;2022-12-20T00:31:18;101019.28;;;18.23;44.56
18784;BME280;9520;50.954;6.968;2022-12-20T00:31:41;101022.97;;;18.20;44.58
18784;BME280;9520;50.954;6.968;2022-12-20T00:32:03;101020.28;;;18.20;44.61
18784;BME280;9520;50.954;6.968;2022-12-20T00:32:26;101022.13;;;18.18;44.76
18784;BME280;9520;50.954;6.968;2022-12-20T00:32:48;101015.91;;;18.18;44.59
18784;BME280;9520;50.954;6.968;2022-12-20T00:33:09;101019.41;;;18.20;44.57
18784;BME280;9520;50.954;6.968;2022-12-20T00:33:34;101019.59;;;18.15;44.69
18784;BME280;9520;50.954;6.968;2022-12-20T00:33:59;101016.13;;;18.13;44.71
18784;BME280;9520;50.954;6.968;2022-12-20T00:34:21;101010.78;;;18.13;45.00
18784;BME280;9520;50.954;6.968;2022-12-20T00:34:43;101002.75;;;18.13;44.96
18784;BME280;9520;50.954;6.968;2022-12-20T00:35:05;101000.22;;;18.10;44.99
18784;BME280;9520;50.954;6.968;2022-12-20T00:35:27;100998.34;;;18.12;45.22
18784;BME280;9520;50.954;6.968;2022-12-20T00:35:49;101001.16;;;18.09;45.31
18784;BME280;9520;50.954;6.968;2022-12-20T00:36:10;101002.03;;;18.09;45.49
18784;BME280;9520;50.954;6.968;2022-12-20T00:36:33;101002.91;;;18.10;45.33
18784;BME280;9520;50.954;6.968;2022-12-20T00:36:55;100998.44;;;18.10;45.41
18784;BME280;9520;50.954;6.968;2022-12-20T00:37:16;100993.09;;;18.10;45.54
18784;BME280;9520;50.954;6.968;2022-12-20T00:37:38;100999.38;;;18.09;45.41
18784;BME280;9520;50.954;6.968;2022-12-20T00:38:01;100999.38;;;18.09;45.54
18784;BME280;9520;50.954;6.968;2022-12-20T00:38:24;100998.53;;;18.07;45.84
18784;BME280;9520;50.954;6.968;2022-12-20T00:38:47;101000.44;;;18.05;45.86
18784;BME280;9520;50.954;6.968;2022-12-20T00:39:09;101000.47;;;18.04;46.23
18784;BME280;9520;50.954;6.968;2022-12-20T00:39:32;101002.28;;;18.03;46.08
18784;BME280;9520;50.954;6.968;2022-12-20T00:39:53;101004.94;;;18.03;45.95
18784;BME280;9520;50.954;6.968;2022-12-20T00:40:17;101012.13;;;18.01;46.08
18784;BME280;9520;50.954;6.968;2022-12-20T00:40:38;101020.22;;;18.00;46.05
18784;BME280;9520;50.954;6.968;2022-12-20T00:41:04;101014.06;;;17.98;46.25
18784;BME280;9520;50.954;6.968;2022-12-20T00:41:28;101020.66;;;17.89;46.29
18784;BME280;9520;50.954;6.968;2022-12-20T00:41:50;101015.16;;;17.92;46.43
18784;BME280;9520;50.954;6.968;2022-12-20T00:42:13;101017.78;;;17.94;46.70
18784;BME280;9520;50.954;6.968;2022-12-20T00:42:35;101024.94;;;17.93;46.48
18784;BME280;9520;50.954;6.968;2022-12-20T00:42:58;101017.75;;;17.95;46.61
18784;BME280;9520;50.954;6.968;2022-12-20T00:43:20;101021.34;;;17.94;46.54
18784;BME280;9520;50.954;6.968;2022-12-20T00:43:42;101021.19;;;17.97;46.47
18784;BME280;9520;50.954;6.968;2022-12-20T00:44:05;101027.47;;;17.96;46.77
18784;BME280;9520;50.954;6.968;2022-12-20T00:44:27;101029.34;;;17.94;46.84
18784;BME280;9520;50.954;6.968;2022-12-20T00:44:49;101027.72;;;17.90;46.80
18784;BME280;9520;50.954;6.968;2022-12-20T00:45:11;101028.50;;;17.92;46.58
18784;BME280;9520;50.954;6.968;2022-12-20T00:45:33;101016.09;;;17.91;46.60
18784;BME280;9520;50.954;6.968;2022-12-20T00:45:55;101029.72;;;17.85;46.67
18784;BME280;9520;50.954;6.968;2022-12-20T00:46:17;101026.22;;;17.83;46.71
18784;BME280;9520;50.954;6.968;2022-12-20T00:46:39;101035.09;;;17.84;46.86
18784;BME280;9520;50.954;6.968;2022-12-20T00:47:03;101029.72;;;17.85;46.86
18784;BME280;9520;50.954;6.968;2022-12-20T00:47:25;101026.91;;;17.88;46.72
18784;BME280;9520;50.954;6.968;2022-12-20T00:47:47;101025.16;;;17.87;46.74
18784;BME280;9520;50.954;6.968;2022-12-20T00:48:08;101031.28;;;17.91;46.78
18784;BME280;9520;50.954;6.968;2022-12-20T00:48:30;101024.09;;;17.91;46.62
18784;BME280;9520;50.954;6.968;2022-12-20T00:48:54;101025.84;;;17.92;46.82
18784;BME280;9520;50.954;6.968;2022-12-20T00:49:16;101026.78;;;17.91;46.83
18784;BME280;9520;50.954;6.968;2022-12-20T00:49:37;101026.91;;;17.88;46.73
18784;BME280;9520;50.954;6.968;2022-12-20T00:49:59;101023.50;;;17.85;47.13
18784;BME280;9520;50.954;6.968;2022-12-20T00:50:22;101038.44;;;17.89;46.75
18784;BME280;9520;50.954;6.968;2022-12-20T00:50:44;101027.09;;;17.84;47.03
18784;BME280;9520;50.954;6.968;2022-12-20T00:51:07;101025.25;;;17.86;46.79
18784;BME280;9520;50.954;6.968;2022-12-20T00:51:30;101027.03;;;17.85;46.83
18784;BME280;9520;50.954;6.968;2022-12-20T00:51:53;101026.91;;;17.88;46.66
18784;BME280;9520;50.954;6.968;2022-12-20T00:52:14;101020.66;;;17.89;46.49
18784;BME280;9520;50.954;6.968;2022-12-20T00:52:36;101028.66;;;17.89;46.75
18784;BME280;9520;50.954;6.968;2022-12-20T00:52:58;101024.19;;;17.90;46.63
18784;BME280;9520;50.954;6.968;2022-12-20T00:53:21;101030.41;;;17.90;46.72
18784;BME280;9520;50.954;6.968;2022-12-20T00:53:47;101023.31;;;17.89;46.87
18784;BME280;9520;50.954;6.968;2022-12-20T00:54:08;101020.69;;;17.88;46.97
18784;BME280;9520;50.954;6.968;2022-12-20T00:54:30;101023.31;;;17.89;46.87
18784;BME280;9520;50.954;6.968;2022-12-20T00:54:53;101030.50;;;17.87;46.90
18784;BME280;9520;50.954;6.968;2022-12-20T00:55:16;101031.38;;;17.88;46.81
18784;BME280;9520;50.954;6.968;2022-12-20T00:55:40;101032.25;;;17.88;46.88
18784;BME280;9520;50.954;6.968;2022-12-20T00:56:02;101034.97;;;17.87;47.09
18784;BME280;9520;50.954;6.968;2022-12-20T00:56:26;101032.38;;;17.85;47.03
18784;BME280;9520;50.954;6.968;2022-12-20T00:56:49;101030.63;;;17.84;47.11
18784;BME280;9520;50.954;6.968;2022-12-20T00:57:11;101027.91;;;17.86;46.88
18784;BME280;9520;50.954;6.968;2022-12-20T00:57:32;101026.16;;;17.85;46.80
18784;BME280;9520;50.954;6.968;2022-12-20T00:57:55;101023.69;;;17.80;47.07
18784;BME280;9520;50.954;6.968;2022-12-20T00:58:17;101031.75;;;17.79;47.25
18784;BME280;9520;50.954;6.968;2022-12-20T00:58:39;101028.19;;;17.78;47.15
18784;BME280;9520;50.954;6.968;2022-12-20T00:59:02;101036.19;;;17.78;47.28
18784;BME280;9520;50.954;6.968;2022-12-20T00:59:23;101044.25;;;17.77;47.37
18784;BME280;9520;50.954;6.968;2022-12-20T00:59:46;101035.38;;;17.76;47.48
18784;BME280;9520;50.954;6.968;2022-12-20T01:00:09;101035.47;;;17.75;47.33
18784;BME280;9520;50.954;6.968;2022-12-20T01:00:31;101041.78;;;17.72;47.30
18784;BME280;9520;50.954;6.968;2022-12-20T01:00:53;101034.78;;;17.69;47.13
18784;BME280;9520;50.954;6.968;2022-12-20T01:01:19;101038.41;;;17.67;47.34
18784;BME280;9520;50.954;6.968;2022-12-20T01:01:43;101042.88;;;17.66;47.29
18784;BME280;9520;50.954;6.968;2022-12-20T01:02:05;101046.41;;;17.67;47.16
18784;BME280;9520;50.954;6.968;2022-12-20T01:02:27;101047.28;;;17.67;47.29
18784;BME280;9520;50.954;6.968;2022-12-20T01:02:49;101049.09;;;17.67;47.62
18784;BME280;9520;50.954;6.968;2022-12-20T01:03:12;101039.38;;;17.66;47.60
18784;BME280;9520;50.954;6.968;2022-12-20T01:03:35;101050.09;;;17.64;47.64
18784;BME280;9520;50.954;6.968;2022-12-20T01:03:56;101050.13;;;17.63;47.33
18784;BME280;9520;50.954;6.968;2022-12-20T01:04:18;101046.59;;;17.62;47.23
18784;BME280;9520;50.954;6.968;2022-12-20T01:04:41;101048.53;;;17.57;47.65
18784;BME280;9520;50.954;6.968;2022-12-20T01:05:03;101055.63;;;17.58;47.72
18784;BME280;9520;50.954;6.968;2022-12-20T01:05:25;101053.06;;;17.55;47.63
18784;BME280;9520;50.954;6.968;2022-12-20T01:05:50;101056.72;;;17.53;47.52
18784;BME280;9520;50.954;6.968;2022-12-20T01:06:13;101052.25;;;17.53;47.68
18784;BME280;9520;50.954;6.968;2022-12-20T01:06:36;101051.50;;;17.50;47.63
18784;BME280;9520;50.954;6.968;2022-12-20T01:06:57;101059.50;;;17.50;47.39
18784;BME280;9520;50.954;6.968;2022-12-20T01:07:19;101055.03;;;17.50;47.67
18784;BME280;9520;50.954;6.968;2022-12-20T01:07:44;101055.97;;;17.49;47.59
18784;BME280;9520;50.954;6.968;2022-12-20T01:08:05;101051.50;;;17.50;47.50
18784;BME280;9520;50.954;6.968;2022-12-20T01:08:29;101053.34;;;17.48;47.73
18784;BME280;9520;50.954;6.968;2022-12-20T01:08:51;101057.06;;;17.44;47.55
18784;BME280;9520;50.954;6.968;2022-12-20T01:09:13;101057.97;;;17.43;47.75
18784;BME280;9520;50.954;6.968;2022-12-20T01:09:36;101055.38;;;17.41;47.63
18784;BME280;9520;50.954;6.968;2022-12-20T01:09:57;101049.22;;;17.39;47.77
18784;BME280;9520;50.954;6.968;2022-12-20T01:10:21;101050.19;;;17.37;47.83
18784;BME280;9520;50.954;6.968;2022-12-20T01:10:43;101041.28;;;17.38;47.64
18784;BME280;9520;50.954;6.968;2022-12-20T01:11:07;101056.41;;;17.37;47.61
18784;BME280;9520;50.954;6.968;2022-12-20T01:11:31;101046.63;;;17.38;47.85
18784;BME280;9520;50.954;6.968;2022-12-20T01:11:55;101043.16;;;17.36;47.69
18784;BME280;9520;50.954;6.968;2022-12-20T01:12:16;101047.53;;;17.37;47.87
18784;BME280;9520;50.954;6.968;2022-12-20T01:12:38;101044.06;;;17.35;47.88
18784;BME280;9520;50.954;6.968;2022-12-20T01:13:01;101050.09;;;17.40;47.95
18784;BME280;9520;50.954;6.968;2022-12-20T01:13:22;101056.22;;;17.42;47.80
18784;BME280;9520;50.954;6.968;2022-12-20T01:13:47;101051.16;;;17.36;48.11
18784;BME280;9520;50.954;6.968;2022-12-20T01:14:11;101048.31;;;17.40;47.81
18784;BME280;9520;50.954;6.968;2022-12-20T01:14:35;101055.31;;;17.43;47.82
18784;BME280;9520;50.954;6.968;2022-12-20T01:14:56;101052.66;;;17.43;47.85
18784;BME280;9520;50.954;6.968;2022-12-20T01:15:18;101056.41;;;17.37;47.86
18784;BME280;9520;50.954;6.968;2022-12-20T01:15:40;101050.09;;;17.40;47.78
18784;BME280;9520;50.954;6.968;2022-12-20T01:16:04;101056.88;;;17.48;47.70
18784;BME280;9520;50.954;6.968;2022-12-20T01:16:28;101053.25;;;17.51;47.80
18784;BME280;9520;50.954;6.968;2022-12-20T01:16:51;101053.00;;;17.57;47.38
18784;BME280;9520;50.954;6.968;2022-12-20T01:17:13;101061.94;;;17.56;47.47
18784;BME280;9520;50.954;6.968;2022-12-20T01:17:36;101052.06;;;17.59;47.21
18784;BME280;9520;50.954;6.968;2022-12-20T01:17:58;101057.34;;;17.61;47.51
18784;BME280;9520;50.954;6.968;2022-12-20T01:18:21;101046.53;;;17.64;47.30
18784;BME280;9520;50.954;6.968;2022-12-20T01:18:43;101054.41;;;17.67;47.18
18784;BME280;9520;50.954;6.968;2022-12-20T01:19:06;101050.03;;;17.66;47.14
18784;BME280;9520;50.954;6.968;2022-12-20T01:19:28;101054.50;;;17.65;47.22
18784;BME280;9520;50.954;6.968;2022-12-20T01:19:50;101048.09;;;17.69;47.34
18784;BME280;9520;50.954;6.968;2022-12-20T01:20:12;101048.09;;;17.69;47.20
18784;BME280;9520;50.954;6.968;2022-12-20T01:21:00;101045.41;;;17.71;46.91
18784;BME280;9520;50.954;6.968;2022-12-20T01:21:23;101049.84;;;17.71;47.07
18784;BME280;9520;50.954;6.968;2022-12-20T01:21:46;101040.81;;;17.75;47.04
18784;BME280;9520;50.954;6.968;2022-12-20T01:22:08;101045.25;;;17.74;46.98
18784;BME280;9520;50.954;6.968;2022-12-20T01:22:30;101044.38;;;17.74;47.00
18784;BME280;9520;50.954;6.968;2022-12-20T01:22:51;101042.59;;;17.74;46.78
18784;BME280;9520;50.954;6.968;2022-12-20T01:23:14;101048.72;;;17.76;46.95
18784;BME280;9520;50.954;6.968;2022-12-20T01:23:36;101048.66;;;17.78;46.80
18784;BME280;9520;50.954;6.968;2022-12-20T01:23:58;101039.94;;;17.74;46.54
18784;BME280;9520;50.954;6.968;2022-12-20T01:24:20;101031.97;;;17.73;46.75
18784;BME280;9520;50.954;6.968;2022-12-20T01:24:41;101045.13;;;17.77;46.67
18784;BME280;9520;50.954;6.968;2022-12-20T01:25:05;101033.53;;;17.78;46.56
18784;BME280;9520;50.954;6.968;2022-12-20T01:25:28;101035.28;;;17.79;46.25
18784;BME280;9520;50.954;6.968;2022-12-20T01:25:50;101034.34;;;17.80;46.46
18784;BME280;9520;50.954;6.968;2022-12-20T01:26:14;101036.19;;;17.78;46.47
18784;BME280;9520;50.954;6.968;2022-12-20T01:26:36;101030.00;;;17.78;46.68
18784;BME280;9520;50.954;6.968;2022-12-20T01:26:59;101031.78;;;17.77;46.80
18784;BME280;9520;50.954;6.968;2022-12-20T01:27:21;101034.41;;;17.79;46.62
18784;BME280;9520;50.954;6.968;2022-12-20T01:27:43;101035.81;;;17.65;46.72
18784;BME280;9520;50.954;6.968;2022-12-20T01:28:04;101027.81;;;17.65;46.55
18784;BME280;9520;50.954;6.968;2022-12-20T01:28:27;101031.22;;;17.69;46.87
18784;BME280;9520;50.954;6.968;2022-12-20T01:28:52;101028.50;;;17.71;46.86
18784;BME280;9520;50.954;6.968;2022-12-20T01:29:14;101032.09;;;17.69;46.96
18784;BME280;9520;50.954;6.968;2022-12-20T01:29:36;101031.19;;;17.71;46.70
18784;BME280;9520;50.954;6.968;2022-12-20T01:29:58;101031.97;;;17.73;46.63
18784;BME280;9520;50.954;6.968;2022-12-20T01:30:20;101034.63;;;17.73;46.69
18784;BME280;9520;50.954;6.968;2022-12-20T01:30:42;101031.03;;;17.74;46.71
18784;BME280;9520;50.954;6.968;2022-12-20T01:31:05;101029.38;;;17.71;46.78
18784;BME280;9520;50.954;6.968;2022-12-20T01:31:28;101034.63;;;17.73;46.66
18784;BME280;9520;50.954;6.968;2022-12-20T01:31:50;101025.91;;;17.69;46.79
18784;BME280;9520;50.954;6.968;2022-12-20T01:32:25;101034.72;;;17.71;46.87
18784;BME280;9520;50.954;6.968;2022-12-20T01:32:46;101028.44;;;17.72;46.59
18784;BME280;9520;50.954;6.968;2022-12-20T01:33:08;101034.72;;;17.71;46.93
18784;BME280;9520;50.954;6.968;2022-12-20T01:33:30;101033.84;;;17.71;46.77
18784;BME280;9520;50.954;6.968;2022-12-20T01:33:52;101034.72;;;17.71;46.67
18784;BME280;9520;50.954;6.968;2022-12-20T01:34:14;101028.56;;;17.69;46.54
18784;BME280;9520;50.954;6.968;2022-12-20T01:34:35;101033.06;;;17.67;46.58
18784;BME280;9520;50.954;6.968;2022-12-20T01:34:58;101035.75;;;17.67;46.52
18784;BME280;9520;50.954;6.968;2022-12-20T01:35:20;101032.19;;;17.66;46.69
18784;BME280;9520;50.954;6.968;2022-12-20T01:35:41;101033.16;;;17.65;46.75
18784;BME280;9520;50.954;6.968;2022-12-20T01:36:06;101036.69;;;17.66;46.73
18784;BME280;9520;50.954;6.968;2022-12-20T01:36:30;101037.63;;;17.65;46.54
18784;BME280;9520;50.954;6.968;2022-12-20T01:36:53;101031.47;;;17.63;46.65
18784;BME280;9520;50.954;6.968;2022-12-20T01:37:14;101030.53;;;17.64;46.47
18784;BME280;9520;50.954;6.968;2022-12-20T01:37:36;101030.41;;;17.67;46.59
18784;BME280;9520;50.954;6.968;2022-12-20T01:37:58;101034.03;;;17.66;46.60
18784;BME280;9520;50.954;6.968;2022-12-20T01:38:19;101034.88;;;17.66;46.33
18784;BME280;9520;50.954;6.968;2022-12-20T01:38:41;101037.63;;;17.65;46.65
18784;BME280;9520;50.954;6.968;2022-12-20T01:39:07;101031.34;;;17.66;46.32
18784;BME280;9520;50.954;6.968;2022-12-20T01:39:30;101033.34;;;17.61;46.57
18784;BME280;9520;50.954;6.968;2022-12-20T01:39:52;101035.91;;;17.62;46.49
18784;BME280;9520;50.954;6.968;2022-12-20T01:40:14;101035.03;;;17.62;46.47
18784;BME280;9520;50.954;6.968;2022-12-20T01:40:39;101028.84;;;17.61;46.59
18784;BME280;9520;50.954;6.968;2022-12-20T01:41:01;101036.78;;;17.63;46.92
18784;BME280;9520;50.954;6.968;2022-12-20T01:41:23;101028.00;;;17.61;46.55
18784;BME280;9520;50.954;6.968;2022-12-20T01:41:45;101029.53;;;17.66;46.44
18784;BME280;9520;50.954;6.968;2022-12-20T01:42:13;101020.03;;;17.59;46.86
18784;BME280;9520;50.954;6.968;2022-12-20T01:42:37;101035.88;;;17.64;46.43
18784;BME280;9520;50.954;6.968;2022-12-20T01:42:58;101031.41;;;17.64;46.55
18784;BME280;9520;50.954;6.968;2022-12-20T01:43:20;101038.50;;;17.65;46.58
18784;BME280;9520;50.954;6.968;2022-12-20T01:43:46;101040.38;;;17.62;46.79
18784;BME280;9520;50.954;6.968;2022-12-20T01:45:08;101031.78;;;17.54;46.94
18784;BME280;9520;50.954;6.968;2022-12-20T01:45:34;101039.59;;;17.60;46.65
18784;BME280;9520;50.954;6.968;2022-12-20T01:45:56;101038.72;;;17.58;46.80
18784;BME280;9520;50.954;6.968;2022-12-20T01:46:19;101049.41;;;17.58;46.99
18784;BME280;9520;50.954;6.968;2022-12-20T01:46:43;101047.78;;;17.54;46.91
18784;BME280;9520;50.954;6.968;2022-12-20T01:47:06;101038.00;;;17.54;47.03
18784;BME280;9520;50.954;6.968;2022-12-20T01:47:31;101040.66;;;17.54;46.95
18784;BME280;9520;50.954;6.968;2022-12-20T01:47:54;101037.88;;;17.57;46.83
18784;BME280;9520;50.954;6.968;2022-12-20T01:48:21;101037.06;;;17.55;46.94
18784;BME280;9520;50.954;6.968;2022-12-20T01:48:49;101034.41;;;17.55;46.97
18784;BME280;9520;50.954;6.968;2022-12-20T01:49:16;101034.50;;;17.52;46.89
18784;BME280;9520;50.954;6.968;2022-12-20T01:49:43;101036.38;;;17.50;47.05
18784;BME280;9520;50.954;6.968;2022-12-20T01:50:08;101037.25;;;17.51;47.26
18784;BME280;9520;50.954;6.968;2022-12-20T01:50:31;101039.78;;;17.54;47.25
18784;BME280;9520;50.954;6.968;2022-12-20T01:50:52;101039.75;;;17.55;46.98
18784;BME280;9520;50.954;6.968;2022-12-20T01:51:14;101037.94;;;17.56;46.97
18784;BME280;9520;50.954;6.968;2022-12-20T01:51:40;101035.19;;;17.57;46.79
18784;BME280;9520;50.954;6.968;2022-12-20T01:52:07;101025.63;;;17.52;47.16
18784;BME280;9520;50.954;6.968;2022-12-20T01:52:34;101033.38;;;17.59;46.92
18784;BME280;9520;50.954;6.968;2022-12-20T01:52:57;101033.25;;;17.62;46.74
18784;BME280;9520;50.954;6.968;2022-12-20T01:53:21;101038.66;;;17.61;46.69
18784;BME280;9520;50.954;6.968;2022-12-20T01:53:44;101028.94;;;17.58;46.91
18784;BME280;9520;50.954;6.968;2022-12-20T01:54:12;101027.91;;;17.62;47.01
18784;BME280;9520;50.954;6.968;2022-12-20T01:54:39;101039.47;;;17.63;46.83
18784;BME280;9520;50.954;6.968;2022-12-20T01:55:07;101043.06;;;17.62;46.89
18784;BME280;9520;50.954;6.968;2022-12-20T01:55:30;101035.13;;;17.60;46.70
18784;BME280;9520;50.954;6.968;2022-12-20T01:55:54;101041.25;;;17.62;46.70
18784;BME280;9520;50.954;6.968;2022-12-20T01:56:16;101036.75;;;17.64;46.68
18784;BME280;9520;50.954;6.968;2022-12-20T01:56:41;101032.50;;;17.59;46.89
18784;BME280;9520;50.954;6.968;2022-12-20T01:57:06;101035.03;;;17.62;46.87
18784;BME280;9520;50.954;6.968;2022-12-20T01:57:33;101035.00;;;17.63;46.88
18784;BME280;9520;50.954;6.968;2022-12-20T01:57:59;101035.88;;;17.64;46.76
18784;BME280;9520;50.954;6.968;2022-12-20T01:58:23;101025.38;;;17.59;46.56
18784;BME280;9520;50.954;6.968;2022-12-20T01:58:47;101025.38;;;17.59;46.79
18784;BME280;9520;50.954;6.968;2022-12-20T01:59:09;101039.59;;;17.60;47.01
18784;BME280;9520;50.954;6.968;2022-12-20T01:59:34;101035.00;;;17.63;46.89
18784;BME280;9520;50.954;6.968;2022-12-20T01:59:58;101034.16;;;17.61;46.91
18784;BME280;9520;50.954;6.968;2022-12-20T02:00:20;101037.66;;;17.63;46.90
18784;BME280;9520;50.954;6.968;2022-12-20T02:00:42;101034.88;;;17.66;46.76
18784;BME280;9520;50.954;6.968;2022-12-20T02:01:06;101042.88;;;17.66;46.84
18784;BME280;9520;50.954;6.968;2022-12-20T02:01:28;101036.75;;;17.64;46.99
18784;BME280;9520;50.954;6.968;2022-12-20T02:01:50;101042.03;;;17.66;46.79
18784;BME280;9520;50.954;6.968;2022-12-20T02:02:12;101040.19;;;17.66;46.58